Time;durP1;ratioP1;P1;durP2;ratioP2;P2;SDS_P1;SDS_P2;PMS_P1;PMS_P2;Temp;Humidity;BMP_temperature;BMP_pressure;BME280_temperature;BME280_humidity;BME280_pressure;Samples;Min_cycle;Max_cycle;Signal;HPM_P1;HPM_P2
2021/08/24 00:01:34;;;;;;;9.88;8.88;;;11.60;99.90;;;;;;5093832;28;20039;-74
2021/08/24 00:04:00;;;;;;;10.80;8.35;;;11.60;99.90;;;;;;5087211;28;20478;-74
2021/08/24 00:06:25;;;;;;;10.15;9.15;;;11.60;99.90;;;;;;5087835;28;20115;-74
2021/08/24 00:08:51;;;;;;;9.55;8.25;;;11.60;99.90;;;;;;5081765;28;20490;-74
2021/08/24 00:11:16;;;;;;;10.23;8.80;;;11.50;99.90;;;;;;5086016;28;20023;-74
2021/08/24 00:13:42;;;;;;;17.48;9.45;;;11.40;99.90;;;;;;5082210;28;20111;-74
2021/08/24 00:16:08;;;;;;;14.63;11.05;;;11.40;99.90;;;;;;5094289;28;20020;-74
2021/08/24 00:18:34;;;;;;;10.30;9.27;;;11.20;99.90;;;;;;5087206;28;20499;-75
2021/08/24 00:21:00;;;;;;;12.90;8.25;;;11.10;99.90;;;;;;5087330;28;20028;-76
2021/08/24 00:23:28;;;;;;;9.18;8.18;;;11.00;99.90;;;;;;5091866;28;20031;-75
2021/08/24 00:25:55;;;;;;;12.15;9.57;;;11.00;99.90;;;;;;5087213;28;20028;-75
2021/08/24 00:28:21;;;;;;;10.98;9.80;;;11.10;99.90;;;;;;5079178;28;20016;-75
2021/08/24 00:30:47;;;;;;;12.93;9.05;;;11.10;99.90;;;;;;5091717;28;20489;-75
2021/08/24 00:33:15;;;;;;;13.85;9.38;;;11.00;99.90;;;;;;5091622;28;20027;-75
2021/08/24 00:35:43;;;;;;;12.80;9.32;;;11.00;99.90;;;;;;5078106;28;20029;-76
2021/08/24 00:38:12;;;;;;;11.82;10.63;;;11.20;99.90;;;;;;5083490;28;20024;-75
2021/08/24 00:40:38;;;;;;;12.80;9.93;;;11.10;99.90;;;;;;5072167;28;20086;-74
2021/08/24 00:43:09;;;;;;;11.95;10.75;;;11.10;99.90;;;;;;5090545;28;20444;-75
2021/08/24 00:45:40;;;;;;;11.93;9.70;;;11.00;99.90;;;;;;5077875;28;20028;-76
2021/08/24 00:48:06;;;;;;;10.90;9.75;;;11.10;99.90;;;;;;5080558;28;20056;-75
2021/08/24 00:50:38;;;;;;;11.70;10.10;;;11.20;99.90;;;;;;5084948;28;20048;-75
2021/08/24 00:53:11;;;;;;;11.30;9.55;;;11.20;99.90;;;;;;5080704;28;20035;-75
2021/08/24 00:55:40;;;;;;;9.95;8.95;;;11.10;99.90;;;;;;5077958;28;20055;-75
2021/08/24 00:58:10;;;;;;;10.05;9.02;;;11.10;99.90;;;;;;5090460;28;20028;-75
2021/08/24 01:00:37;;;;;;;12.27;9.68;;;11.00;99.90;;;;;;5078092;28;20470;-75
2021/08/24 01:03:09;;;;;;;11.00;9.10;;;10.80;99.90;;;;;;5091897;28;20028;-75
2021/08/24 01:05:37;;;;;;;11.88;10.38;;;10.90;99.90;;;;;;5085352;28;20032;-75
2021/08/24 01:08:34;;;;;;;11.60;10.13;;;10.80;99.90;;;;;;5079044;28;20090;-74
2021/08/24 01:11:25;;;;;;;11.85;9.70;;;10.70;99.90;;;;;;5092485;28;20020;-74
2021/08/24 01:14:10;;;;;;;12.75;8.77;;;10.60;99.90;;;;;;5079397;28;20043;-73
2021/08/24 01:17:10;;;;;;;12.52;11.18;;;10.70;99.90;;;;;;5081709;28;20050;-74
2021/08/24 01:20:02;;;;;;;11.98;10.52;;;10.90;99.90;;;;;;5081177;28;20071;-74
2021/08/24 01:22:34;;;;;;;11.93;10.27;;;11.00;99.90;;;;;;5096693;28;20024;-73
2021/08/24 01:25:05;;;;;;;12.25;10.95;;;10.90;99.90;;;;;;5095027;28;20023;-73
2021/08/24 01:27:37;;;;;;;14.52;11.88;;;10.90;99.90;;;;;;5095257;28;20027;-74
2021/08/24 01:30:22;;;;;;;13.63;11.27;;;10.90;99.90;;;;;;5089575;28;20052;-75
2021/08/24 01:33:33;;;;;;;12.48;10.13;;;11.00;99.90;;;;;;5073967;28;20027;-74
2021/08/24 01:36:10;;;;;;;14.20;11.45;;;11.10;99.90;;;;;;5092217;28;20024;-74
2021/08/24 01:39:08;;;;;;;15.55;11.88;;;11.10;99.90;;;;;;5096148;28;20457;-74
2021/08/24 01:42:07;;;;;;;13.60;11.10;;;11.00;99.90;;;;;;5093292;28;20063;-74
2021/08/24 01:44:40;;;;;;;12.48;11.18;;;10.90;99.90;;;;;;5094324;28;20081;-75
2021/08/24 01:47:15;;;;;;;13.88;10.68;;;11.00;99.90;;;;;;5079767;28;20020;-74
2021/08/24 01:49:49;;;;;;;14.23;10.88;;;10.90;99.90;;;;;;5093831;28;20386;-74
2021/08/24 01:52:20;;;;;;;15.43;12.52;;;10.80;99.90;;;;;;5076790;28;20039;-75
2021/08/24 01:54:55;;;;;;;17.63;14.15;;;10.90;99.90;;;;;;5072847;28;20483;-75
2021/08/24 01:57:30;;;;;;;15.33;13.37;;;10.80;99.90;;;;;;5090551;28;21294;-74
2021/08/24 02:00:01;;;;;;;17.33;13.98;;;10.90;99.90;;;;;;5090433;28;20035;-74
2021/08/24 02:02:32;;;;;;;17.65;13.63;;;10.80;99.90;;;;;;5085352;28;20426;-74
2021/08/24 02:05:09;;;;;;;19.58;14.27;;;10.80;99.90;;;;;;5089373;28;20101;-74
2021/08/24 02:07:35;;;;;;;16.17;12.95;;;10.70;99.90;;;;;;5082879;28;20146;-75
2021/08/24 02:10:15;;;;;;;16.58;13.93;;;10.60;99.90;;;;;;5090655;28;20029;-75
2021/08/24 02:12:44;;;;;;;20.67;13.95;;;10.50;99.90;;;;;;5088390;28;20032;-75
2021/08/24 02:15:10;;;;;;;16.20;14.38;;;10.50;99.90;;;;;;5092504;28;20077;-75
2021/08/24 02:17:40;;;;;;;17.00;13.23;;;10.50;99.90;;;;;;5094193;28;20024;-74
2021/08/24 02:20:29;;;;;;;18.75;13.70;;;10.60;99.90;;;;;;5092316;28;20050;-74
2021/08/24 02:22:59;;;;;;;13.70;12.25;;;10.60;99.90;;;;;;5087925;28;20064;-74
2021/08/24 02:25:29;;;;;;;13.43;12.00;;;10.70;99.90;;;;;;5084320;28;20046;-75
2021/08/24 02:28:07;;;;;;;17.27;13.23;;;10.80;99.90;;;;;;5093741;28;20027;-76
2021/08/24 02:30:38;;;;;;;19.52;12.30;;;10.90;99.90;;;;;;5086169;28;20549;-75
2021/08/24 02:33:05;;;;;;;14.73;11.88;;;10.90;99.90;;;;;;5079889;28;20034;-75
2021/08/24 02:35:40;;;;;;;14.45;10.68;;;11.00;99.90;;;;;;5080139;28;20021;-74
2021/08/24 02:38:20;;;;;;;11.45;10.07;;;11.10;99.90;;;;;;5093588;28;20076;-75
2021/08/24 02:40:55;;;;;;;14.00;10.75;;;11.20;99.90;;;;;;5089316;28;20050;-76
2021/08/24 02:43:42;;;;;;;15.32;10.20;;;11.20;99.90;;;;;;5084307;28;20024;-74
2021/08/24 02:46:23;;;;;;;14.85;10.82;;;11.20;99.90;;;;;;5081752;28;20031;-75
2021/08/24 02:49:03;;;;;;;11.35;9.25;;;11.30;99.90;;;;;;5093318;28;20031;-75
2021/08/24 02:51:30;;;;;;;13.18;9.98;;;11.30;99.90;;;;;;5085168;28;20430;-73
2021/08/24 02:53:55;;;;;;;13.68;10.00;;;11.40;99.90;;;;;;5079921;28;20552;-73
2021/08/24 02:56:21;;;;;;;15.32;11.73;;;11.30;99.90;;;;;;5093066;28;20066;-74
2021/08/24 02:58:46;;;;;;;10.75;9.00;;;11.20;99.90;;;;;;5079581;28;20034;-73
2021/08/24 03:01:12;;;;;;;16.60;10.75;;;11.20;99.90;;;;;;5093086;28;20482;-74
2021/08/24 03:03:37;;;;;;;12.48;9.30;;;11.20;99.90;;;;;;5079216;28;20077;-74
2021/08/24 03:06:03;;;;;;;11.32;10.10;;;11.20;99.90;;;;;;5092902;28;20390;-74
2021/08/24 03:08:29;;;;;;;13.65;10.30;;;11.30;99.90;;;;;;5091729;28;20051;-74
2021/08/24 03:10:55;;;;;;;11.75;9.50;;;11.10;99.90;;;;;;5093287;28;20059;-74
2021/08/24 03:13:37;;;;;;;13.60;10.52;;;11.10;99.90;;;;;;5079133;28;20024;-75
2021/08/24 03:16:10;;;;;;;14.68;10.60;;;11.10;99.90;;;;;;5092853;28;20394;-75
2021/08/24 03:18:45;;;;;;;12.35;9.23;;;11.20;99.90;;;;;;5093078;28;20073;-74
2021/08/24 03:21:17;;;;;;;12.80;9.55;;;11.10;99.90;;;;;;5093250;28;20028;-74
2021/08/24 03:23:44;;;;;;;12.88;9.13;;;11.10;99.90;;;;;;5085178;28;20020;-74
2021/08/24 03:26:13;;;;;;;9.95;8.15;;;11.30;99.90;;;;;;5092539;28;20096;-75
2021/08/24 03:28:42;;;;;;;11.35;8.75;;;11.40;99.90;;;;;;5091529;28;20024;-74
2021/08/24 03:31:12;;;;;;;10.27;8.98;;;11.50;99.90;;;;;;5088286;28;20031;-74
2021/08/24 03:33:38;;;;;;;13.25;9.57;;;11.50;99.90;;;;;;5092531;28;20039;-73
2021/08/24 03:36:04;;;;;;;14.05;9.82;;;11.40;99.90;;;;;;5092467;28;20020;-74
2021/08/24 03:38:29;;;;;;;11.48;10.23;;;11.20;99.90;;;;;;5081269;28;20059;-74
2021/08/24 03:40:55;;;;;;;11.63;9.10;;;11.10;99.90;;;;;;5085765;28;20044;-74
2021/08/24 03:43:20;;;;;;;11.52;9.07;;;11.30;99.90;;;;;;5090286;28;20617;-74
2021/08/24 03:45:46;;;;;;;12.00;10.30;;;11.30;99.90;;;;;;5084361;28;20027;-74
2021/08/24 03:48:11;;;;;;;11.50;10.30;;;11.40;99.90;;;;;;5092552;28;20504;-74
2021/08/24 03:50:37;;;;;;;11.35;10.15;;;11.50;99.90;;;;;;5075412;28;20491;-75
2021/08/24 03:53:02;;;;;;;12.70;9.10;;;11.50;99.90;;;;;;5084168;28;20036;-74
2021/08/24 03:55:28;;;;;;;10.75;9.32;;;11.50;99.90;;;;;;5080421;28;20059;-75
2021/08/24 03:57:53;;;;;;;11.25;8.82;;;11.40;99.90;;;;;;5081698;28;20461;-76
2021/08/24 04:00:19;;;;;;;12.15;9.55;;;11.40;99.90;;;;;;5074556;28;20115;-75
2021/08/24 04:02:44;;;;;;;11.52;9.35;;;11.40;99.90;;;;;;5091961;28;20532;-75
2021/08/24 04:05:11;;;;;;;13.00;9.68;;;11.40;99.90;;;;;;5087916;28;20153;-74
2021/08/24 04:07:37;;;;;;;10.40;8.00;;;11.50;99.90;;;;;;5082698;28;20028;-74
2021/08/24 04:10:05;;;;;;;8.35;7.50;;;11.50;99.90;;;;;;5088096;28;20017;-74
2021/08/24 04:12:31;;;;;;;10.00;7.85;;;11.60;99.90;;;;;;5071752;28;20020;-74
2021/08/24 04:14:56;;;;;;;8.35;7.45;;;11.60;99.90;;;;;;5087788;28;20616;-74
2021/08/24 04:17:22;;;;;;;10.15;8.43;;;11.60;99.90;;;;;;5091946;28;20039;-74
2021/08/24 04:19:47;;;;;;;8.38;7.57;;;11.50;99.90;;;;;;5078157;28;20031;-74
2021/08/24 04:22:22;;;;;;;9.75;7.10;;;11.50;99.90;;;;;;5089859;28;20024;-74
2021/08/24 04:24:47;;;;;;;9.68;7.88;;;11.50;99.90;;;;;;5091332;28;20067;-73
2021/08/24 04:27:13;;;;;;;10.60;7.85;;;11.40;99.90;;;;;;5096735;28;20047;-73
2021/08/24 04:29:38;;;;;;;10.35;8.90;;;11.40;99.90;;;;;;5088684;28;20052;-73
2021/08/24 04:32:05;;;;;;;10.75;7.43;;;11.30;99.90;;;;;;5083284;28;20048;-74
2021/08/24 04:34:31;;;;;;;11.07;7.22;;;11.30;99.90;;;;;;5091689;28;20024;-75
2021/08/24 04:36:57;;;;;;;8.55;7.55;;;11.40;99.90;;;;;;5080218;28;20381;-74
2021/08/24 04:39:23;;;;;;;8.40;6.97;;;11.50;99.90;;;;;;5089889;28;20028;-75
2021/08/24 04:41:49;;;;;;;9.70;7.20;;;11.50;99.90;;;;;;5079991;28;20039;-74
2021/08/24 04:44:15;;;;;;;10.98;7.05;;;11.50;99.90;;;;;;5088429;28;20048;-73
2021/08/24 04:46:40;;;;;;;8.80;6.68;;;11.50;99.90;;;;;;5086990;28;20027;-74
2021/08/24 04:49:06;;;;;;;12.68;7.15;;;11.50;99.90;;;;;;5082239;28;20020;-75
2021/08/24 04:51:32;;;;;;;8.02;7.05;;;11.50;99.90;;;;;;5083816;28;20120;-74
2021/08/24 04:53:57;;;;;;;8.43;7.07;;;11.50;99.90;;;;;;5089160;28;20375;-74
2021/08/24 04:56:23;;;;;;;8.65;7.00;;;11.60;99.90;;;;;;5086810;28;20055;-73
2021/08/24 04:58:48;;;;;;;8.63;6.75;;;11.60;99.90;;;;;;5081644;28;20028;-73
2021/08/24 05:01:14;;;;;;;10.60;7.00;;;11.60;99.90;;;;;;5084304;28;20024;-74
2021/08/24 05:03:39;;;;;;;9.35;6.63;;;11.60;99.90;;;;;;5079354;28;20474;-73
2021/08/24 05:06:05;;;;;;;11.02;6.57;;;11.60;99.90;;;;;;5084064;28;20108;-74
2021/08/24 05:08:30;;;;;;;7.82;6.68;;;11.60;99.90;;;;;;5091473;28;20482;-74
2021/08/24 05:10:56;;;;;;;8.05;6.60;;;11.70;99.90;;;;;;5095304;28;20421;-75
2021/08/24 05:13:21;;;;;;;7.55;6.25;;;11.60;99.90;;;;;;5089989;28;20052;-74
2021/08/24 05:15:47;;;;;;;10.30;6.55;;;11.70;99.90;;;;;;5091175;28;20023;-75
2021/08/24 05:18:12;;;;;;;9.80;6.55;;;11.70;99.90;;;;;;5090900;28;20024;-75
2021/08/24 05:20:38;;;;;;;8.32;6.10;;;11.70;99.90;;;;;;5084615;28;20020;-75
2021/08/24 05:23:04;;;;;;;7.25;5.93;;;11.70;99.90;;;;;;5090800;28;20029;-75
2021/08/24 05:25:29;;;;;;;11.60;5.95;;;11.70;99.90;;;;;;5085888;28;20501;-75
2021/08/24 05:27:55;;;;;;;6.68;5.90;;;11.70;99.90;;;;;;5080930;28;20028;-75
2021/08/24 05:30:24;;;;;;;9.10;6.07;;;11.70;99.90;;;;;;5082529;28;20020;-75
2021/08/24 05:32:50;;;;;;;8.38;5.97;;;11.80;99.90;;;;;;5078882;28;20024;-74
2021/08/24 05:35:17;;;;;;;6.63;5.60;;;11.90;99.90;;;;;;5082146;28;20729;-74
2021/08/24 05:37:43;;;;;;;7.90;6.00;;;11.90;99.90;;;;;;5074515;28;20052;-74
2021/08/24 05:40:09;;;;;;;9.80;6.38;;;12.10;99.90;;;;;;5085824;28;20147;-74
2021/08/24 05:42:35;;;;;;;8.75;5.72;;;12.10;99.90;;;;;;5081108;28;20115;-75
2021/08/24 05:45:01;;;;;;;9.18;5.50;;;12.10;99.90;;;;;;5082923;28;20116;-75
2021/08/24 05:47:28;;;;;;;7.53;5.55;;;12.30;99.90;;;;;;5086519;28;20020;-74
2021/08/24 05:49:54;;;;;;;8.88;6.32;;;12.40;99.90;;;;;;5086202;28;20024;-74
2021/08/24 05:52:19;;;;;;;8.77;5.50;;;12.30;99.90;;;;;;5079380;28;20540;-75
2021/08/24 05:54:47;;;;;;;10.18;5.75;;;12.50;99.90;;;;;;5080097;28;20563;-76
2021/08/24 05:57:15;;;;;;;7.32;5.47;;;12.60;99.90;;;;;;5088796;28;20032;-76
2021/08/24 05:59:40;;;;;;;8.13;5.60;;;12.60;99.90;;;;;;5092947;28;20070;-76
2021/08/24 06:02:06;;;;;;;8.13;5.60;;;12.50;99.90;;;;;;5079351;28;20020;-76
2021/08/24 06:04:33;;;;;;;8.45;5.90;;;12.60;99.90;;;;;;5093085;28;20489;-75
2021/08/24 06:06:58;;;;;;;7.40;5.50;;;12.70;99.90;;;;;;5094705;28;20095;-73
2021/08/24 06:09:24;;;;;;;11.10;6.25;;;12.60;99.90;;;;;;5094132;28;20103;-73
2021/08/24 06:11:50;;;;;;;7.75;6.70;;;12.60;99.90;;;;;;5098744;28;20032;-73
2021/08/24 06:14:18;;;;;;;8.75;5.95;;;12.80;99.90;;;;;;5087155;28;20073;-74
2021/08/24 06:16:44;;;;;;;10.27;6.50;;;12.90;99.90;;;;;;5086796;28;20040;-73
2021/08/24 06:19:11;;;;;;;8.05;6.25;;;12.80;99.90;;;;;;5073702;28;20138;-73
2021/08/24 06:21:38;;;;;;;13.10;6.53;;;12.80;99.90;;;;;;5075187;28;20029;-73
2021/08/24 06:24:04;;;;;;;7.72;6.05;;;12.90;99.90;;;;;;5079645;28;20119;-75
2021/08/24 06:26:31;;;;;;;7.47;6.28;;;12.90;99.90;;;;;;5093020;28;20028;-72
2021/08/24 06:28:56;;;;;;;7.15;6.38;;;13.00;99.90;;;;;;5092566;28;20020;-72
2021/08/24 06:31:27;;;;;;;7.75;6.18;;;13.10;99.90;;;;;;5082984;28;20020;-72
2021/08/24 06:33:53;;;;;;;9.23;6.72;;;13.00;99.90;;;;;;5087239;28;20623;-73
2021/08/24 06:36:20;;;;;;;8.60;6.60;;;13.00;99.90;;;;;;5093268;28;20099;-73
2021/08/24 06:38:46;;;;;;;9.68;6.28;;;13.00;99.90;;;;;;5099281;28;20024;-72
2021/08/24 06:41:13;;;;;;;9.13;6.97;;;12.90;99.90;;;;;;5099899;28;20632;-73
2021/08/24 06:43:39;;;;;;;9.27;6.90;;;13.00;99.90;;;;;;5091598;28;20032;-72
2021/08/24 06:46:05;;;;;;;8.45;6.63;;;13.10;99.90;;;;;;5094571;28;20089;-74
2021/08/24 06:48:31;;;;;;;9.18;7.40;;;13.20;99.90;;;;;;5086946;28;20020;-73
2021/08/24 06:50:56;;;;;;;9.68;7.47;;;13.20;99.90;;;;;;5085040;28;20024;-73
2021/08/24 06:53:22;;;;;;;8.43;7.28;;;13.40;99.90;;;;;;5085406;28;20024;-73
2021/08/24 06:55:48;;;;;;;11.35;7.43;;;13.50;99.90;;;;;;5086106;28;20073;-73
2021/08/24 06:58:14;;;;;;;9.77;7.57;;;13.30;99.90;;;;;;5075968;28;20029;-73
2021/08/24 07:00:43;;;;;;;10.60;7.75;;;13.30;99.90;;;;;;5099007;28;20028;-72
2021/08/24 07:03:09;;;;;;;12.00;8.57;;;13.40;99.90;;;;;;5084790;28;20494;-72
2021/08/24 07:05:35;;;;;;;10.85;8.35;;;13.40;99.90;;;;;;5078416;28;20036;-74
2021/08/24 07:08:01;;;;;;;11.15;8.27;;;13.50;99.90;;;;;;5092863;28;20474;-72
2021/08/24 07:10:28;;;;;;;10.10;8.57;;;13.50;99.90;;;;;;5093007;28;20048;-73
2021/08/24 07:12:53;;;;;;;11.48;8.80;;;13.70;99.90;;;;;;5092837;28;20410;-73
2021/08/24 07:15:21;;;;;;;11.50;8.70;;;13.80;99.90;;;;;;5092670;28;20028;-74
2021/08/24 07:17:50;;;;;;;11.85;8.57;;;13.80;99.90;;;;;;5092317;28;20089;-75
2021/08/24 07:20:18;;;;;;;11.48;8.82;;;14.00;99.90;;;;;;5079342;28;20031;-74
2021/08/24 07:22:44;;;;;;;12.13;9.05;;;14.10;99.90;;;;;;5077713;28;20480;-74
2021/08/24 07:25:13;;;;;;;12.07;9.15;;;14.20;99.90;;;;;;5072233;28;20103;-74
2021/08/24 07:27:39;;;;;;;13.25;9.43;;;14.40;99.90;;;;;;5084667;28;20016;-73
2021/08/24 07:30:05;;;;;;;12.68;9.25;;;14.50;99.90;;;;;;5080808;28;20216;-72
2021/08/24 07:32:31;;;;;;;10.65;9.10;;;14.70;99.90;;;;;;5089898;28;20098;-72
2021/08/24 07:34:56;;;;;;;10.27;9.00;;;15.10;99.90;;;;;;5079426;28;20111;-72
2021/08/24 07:37:22;;;;;;;13.30;8.88;;;15.10;99.90;;;;;;5096766;28;20126;-72
2021/08/24 07:39:47;;;;;;;9.98;8.90;;;15.20;99.90;;;;;;5095102;28;20098;-73
2021/08/24 07:42:13;;;;;;;13.35;9.10;;;15.30;99.90;;;;;;5098993;28;20031;-72
2021/08/24 07:44:39;;;;;;;11.25;8.95;;;15.20;99.90;;;;;;5091961;28;20024;-72
2021/08/24 07:47:06;;;;;;;11.90;8.18;;;15.20;99.90;;;;;;5077192;28;20092;-72
2021/08/24 07:49:36;;;;;;;13.43;9.32;;;15.30;99.90;;;;;;5084405;28;20533;-72
2021/08/24 07:52:03;;;;;;;13.43;8.88;;;15.20;99.90;;;;;;5090323;28;20035;-72
2021/08/24 07:54:29;;;;;;;11.98;8.48;;;15.40;99.90;;;;;;5092887;28;20029;-72
2021/08/24 07:56:54;;;;;;;10.10;8.63;;;15.50;99.90;;;;;;5088597;28;20055;-72
2021/08/24 07:59:20;;;;;;;8.73;7.57;;;15.60;99.90;;;;;;5090918;28;20032;-72
2021/08/24 08:01:45;;;;;;;12.18;7.85;;;15.60;99.90;;;;;;5085258;28;20024;-72
2021/08/24 08:04:11;;;;;;;11.55;8.07;;;15.60;99.90;;;;;;5082440;28;20028;-72
2021/08/24 08:06:39;;;;;;;9.68;7.50;;;15.50;99.90;;;;;;5088003;28;20029;-73
2021/08/24 08:09:04;;;;;;;11.48;7.63;;;15.60;99.90;;;;;;5090778;28;20660;-73
2021/08/24 08:11:32;;;;;;;12.30;7.93;;;15.90;99.90;;;;;;5089971;28;20051;-72
2021/08/24 08:13:59;;;;;;;9.73;7.70;;;15.80;99.90;;;;;;5080269;28;20115;-72
2021/08/24 08:16:25;;;;;;;9.02;7.38;;;15.90;99.90;;;;;;5089000;28;20033;-73
2021/08/24 08:18:51;;;;;;;8.48;6.82;;;16.00;99.90;;;;;;5081133;28;20474;-72
2021/08/24 08:21:18;;;;;;;9.05;7.60;;;15.80;99.90;;;;;;5088551;28;20036;-74
2021/08/24 08:23:44;;;;;;;7.38;6.45;;;15.70;99.90;;;;;;5087732;28;20043;-73
2021/08/24 08:26:09;;;;;;;7.63;6.70;;;15.90;99.90;;;;;;5084966;28;20478;-72
2021/08/24 08:28:35;;;;;;;7.68;6.85;;;16.10;99.90;;;;;;5091057;28;20433;-73
2021/08/24 08:31:01;;;;;;;7.88;6.55;;;16.30;99.90;;;;;;5074573;28;20024;-72
2021/08/24 08:33:28;;;;;;;8.00;6.18;;;16.40;99.90;;;;;;5081569;28;20386;-73
2021/08/24 08:35:53;;;;;;;9.35;6.30;;;16.60;99.90;;;;;;5074991;28;20044;-72
2021/08/24 08:38:19;;;;;;;9.43;6.78;;;16.80;99.90;;;;;;5082198;28;20100;-72
2021/08/24 08:41:02;;;;;;;9.23;6.68;;;16.80;99.90;;;;;;5072869;28;20036;-73
2021/08/24 08:43:46;;;;;;;10.00;6.97;;;16.70;99.90;;;;;;5092029;28;20027;-73
2021/08/24 08:46:28;;;;;;;9.57;6.57;;;16.90;99.90;;;;;;5071227;28;20395;-73
2021/08/24 08:49:15;;;;;;;10.60;6.45;;;17.10;99.90;;;;;;5074934;28;20020;-73
2021/08/24 08:52:19;;;;;;;7.43;6.07;;;17.10;99.90;;;;;;5091482;28;20032;-73
2021/08/24 08:54:59;;;;;;;8.82;6.55;;;16.90;99.90;;;;;;5060564;28;20111;-72
2021/08/24 08:57:31;;;;;;;7.22;6.47;;;16.90;99.90;;;;;;5071299;28;20020;-71
2021/08/24 09:00:12;;;;;;;8.18;6.40;;;17.00;99.90;;;;;;5071296;28;20375;-71
2021/08/24 09:02:50;;;;;;;9.18;6.80;;;17.00;99.90;;;;;;5071275;28;20017;-72
2021/08/24 09:05:19;;;;;;;11.00;6.75;;;17.00;99.90;;;;;;5075868;28;20032;-71
2021/08/24 09:07:49;;;;;;;7.50;6.60;;;17.10;99.90;;;;;;5082890;28;20024;-72
2021/08/24 09:10:37;;;;;;;7.80;6.80;;;17.00;99.90;;;;;;5101877;28;20019;-73
2021/08/24 09:13:12;;;;;;;8.98;6.40;;;17.10;99.90;;;;;;5086468;28;20466;-73
2021/08/24 09:15:43;;;;;;;8.95;7.03;;;17.20;99.90;;;;;;5095026;28;20024;-72
2021/08/24 09:18:15;;;;;;;8.00;6.28;;;17.10;99.90;;;;;;5088320;28;20056;-73
2021/08/24 09:20:55;;;;;;;9.27;6.82;;;17.10;99.90;;;;;;5087583;28;20021;-73
2021/08/24 09:23:21;;;;;;;7.85;6.78;;;17.10;99.90;;;;;;5080573;28;20479;-72
2021/08/24 09:26:24;;;;;;;7.65;6.63;;;17.00;99.90;;;;;;5084070;28;20032;-72
2021/08/24 09:28:53;;;;;;;8.52;6.72;;;17.30;99.90;;;;;;5096861;28;20493;-72
2021/08/24 09:31:20;;;;;;;8.73;6.38;;;17.50;99.90;;;;;;5075961;28;20716;-74
2021/08/24 09:33:47;;;;;;;9.30;7.50;;;17.60;99.90;;;;;;5073192;28;20099;-72
2021/08/24 09:36:12;;;;;;;7.75;6.47;;;17.70;99.90;;;;;;5074359;28;20497;-73
2021/08/24 09:38:49;;;;;;;7.20;6.22;;;17.70;99.90;;;;;;5074507;28;20039;-72
2021/08/24 09:41:22;;;;;;;9.57;6.75;;;17.70;99.90;;;;;;5073134;28;20051;-73
2021/08/24 09:43:48;;;;;;;8.50;6.88;;;18.00;99.90;;;;;;5074250;28;20016;-73
2021/08/24 09:46:16;;;;;;;8.07;6.55;;;18.00;99.90;;;;;;5074107;28;20025;-72
2021/08/24 09:48:48;;;;;;;8.68;7.20;;;18.10;99.90;;;;;;5074776;28;20020;-72
2021/08/24 09:51:50;;;;;;;9.05;6.53;;;18.30;99.90;;;;;;5085200;28;20502;-72
2021/08/24 09:54:36;;;;;;;7.75;6.32;;;18.60;99.90;;;;;;5081966;28;20486;-72
2021/08/24 09:57:29;;;;;;;9.25;7.32;;;18.70;99.90;;;;;;5091597;28;20048;-72
2021/08/24 10:00:13;;;;;;;9.05;7.03;;;19.00;99.90;;;;;;5070344;28;20482;-73
2021/08/24 10:02:45;;;;;;;9.63;7.18;;;19.10;99.90;;;;;;5082106;28;20035;-73
2021/08/24 10:05:19;;;;;;;8.52;6.80;;;19.30;99.90;;;;;;5089747;28;20154;-74
2021/08/24 10:07:47;;;;;;;8.25;7.22;;;19.10;99.90;;;;;;5088502;28;20028;-74
2021/08/24 10:10:28;;;;;;;8.77;7.15;;;18.80;99.90;;;;;;5089288;28;20024;-73
2021/08/24 10:12:57;;;;;;;7.80;7.00;;;18.70;99.90;;;;;;5089308;28;20016;-73
2021/08/24 10:15:36;;;;;;;8.20;7.13;;;18.70;99.90;;;;;;5078290;28;20023;-73
2021/08/24 10:18:22;;;;;;;8.65;6.88;;;18.40;99.90;;;;;;5086241;28;20043;-73
2021/08/24 10:20:52;;;;;;;;;;;18.20;99.90;;;;;;5082401;28;20032;-72
2021/08/24 10:23:29;;;;;;;8.73;7.70;;;18.30;99.90;;;;;;5081569;28;19991;-73
2021/08/24 10:25:58;;;;;;;9.90;7.32;;;18.20;99.90;;;;;;5089146;28;20466;-72
2021/08/24 10:28:51;;;;;;;11.25;7.72;;;18.20;99.90;;;;;;5082103;28;20025;-73
2021/08/24 10:31:26;;;;;;;8.57;7.65;;;18.50;99.90;;;;;;5081362;28;20060;-72
2021/08/24 10:33:56;;;;;;;10.63;7.45;;;18.50;99.90;;;;;;5081467;28;20031;-73
2021/08/24 10:36:31;;;;;;;8.45;6.97;;;18.40;99.90;;;;;;5085472;28;20409;-73
2021/08/24 10:39:04;;;;;;;9.23;7.90;;;18.70;99.90;;;;;;5082530;28;20072;-74
2021/08/24 10:41:47;;;;;;;9.90;8.23;;;18.60;99.90;;;;;;5079829;28;20070;-73
2021/08/24 10:44:24;;;;;;;9.40;7.13;;;18.70;99.90;;;;;;5090299;28;20028;-73
2021/08/24 10:46:52;;;;;;;8.90;7.10;;;18.90;99.90;;;;;;5091976;28;20139;-73
2021/08/24 10:49:17;;;;;;;8.48;7.00;;;19.10;99.90;;;;;;5102296;28;20037;-73
2021/08/24 10:51:53;;;;;;;8.80;7.25;;;18.80;99.90;;;;;;5104913;28;20030;-73
2021/08/24 10:54:34;;;;;;;7.95;7.18;;;18.80;99.90;;;;;;5083562;28;20454;-73
2021/08/24 10:57:30;;;;;;;8.40;7.57;;;19.10;99.90;;;;;;5085463;28;20119;-73
2021/08/24 11:00:20;;;;;;;9.77;7.13;;;19.20;99.90;;;;;;5100044;28;20069;-72
2021/08/24 11:03:22;;;;;;;9.18;7.07;;;19.10;99.90;;;;;;5087003;28;20032;-73
2021/08/24 11:06:18;;;;;;;8.50;7.45;;;18.80;99.90;;;;;;5094356;28;20474;-73
2021/08/24 11:09:05;;;;;;;9.13;7.33;;;18.70;99.90;;;;;;5101880;28;20059;-73
2021/08/24 11:11:44;;;;;;;8.57;7.68;;;18.50;99.90;;;;;;5105517;28;20036;-73
2021/08/24 11:14:38;;;;;;;9.48;7.57;;;18.50;99.90;;;;;;5079986;28;20048;-73
2021/08/24 11:17:25;;;;;;;11.18;7.53;;;18.40;99.90;;;;;;5088319;28;20031;-73
2021/08/24 11:20:13;;;;;;;9.00;8.07;;;18.50;99.90;;;;;;5085680;28;20509;-73
2021/08/24 11:22:59;;;;;;;8.38;7.20;;;18.60;99.90;;;;;;5076619;28;20067;-73
2021/08/24 11:25:48;;;;;;;10.65;7.43;;;18.90;99.90;;;;;;5087771;28;20048;-73
2021/08/24 11:28:53;;;;;;;8.48;7.57;;;18.80;99.90;;;;;;5082543;28;20028;-73
2021/08/24 11:31:24;;;;;;;9.63;8.02;;;18.70;99.90;;;;;;5081202;28;20478;-73
2021/08/24 11:34:06;;;;;;;10.38;8.52;;;18.70;99.90;;;;;;5070602;28;20414;-73
2021/08/24 11:36:39;;;;;;;9.82;8.57;;;18.70;99.90;;;;;;5080375;28;20028;-73
2021/08/24 11:39:13;;;;;;;10.98;8.55;;;18.70;99.90;;;;;;5079685;28;20411;-73
2021/08/24 11:41:40;;;;;;;9.85;8.75;;;18.90;99.90;;;;;;5091396;28;20105;-73
2021/08/24 11:44:12;;;;;;;10.35;8.68;;;19.00;99.90;;;;;;5085727;28;20039;-73
2021/08/24 11:46:54;;;;;;;11.55;9.18;;;19.30;99.90;;;;;;5106313;28;20065;-73
2021/08/24 11:49:25;;;;;;;12.00;9.38;;;19.40;99.90;;;;;;5082687;28;20021;-73
2021/08/24 11:52:05;;;;;;;10.27;8.55;;;19.70;99.90;;;;;;5098252;28;20031;-73
2021/08/24 11:54:58;;;;;;;9.98;8.65;;;19.60;99.90;;;;;;5082937;28;20031;-73
2021/08/24 11:57:36;;;;;;;10.02;8.00;;;19.40;99.90;;;;;;5080449;28;20020;-73
2021/08/24 12:00:04;;;;;;;8.52;7.63;;;18.90;99.90;;;;;;5095991;28;20024;-73
2021/08/24 12:02:39;;;;;;;9.02;7.75;;;19.10;99.90;;;;;;5100043;28;20038;-73
2021/08/24 12:05:12;;;;;;;9.88;8.18;;;18.80;99.90;;;;;;5089186;28;21584;-73
2021/08/24 12:07:40;;;;;;;8.43;7.53;;;18.80;99.90;;;;;;5106189;28;20114;-73
2021/08/24 12:10:23;;;;;;;8.35;7.55;;;18.60;99.90;;;;;;5086080;28;20038;-76
2021/08/24 12:12:55;;;;;;;10.13;8.05;;;18.50;99.90;;;;;;5085209;28;20108;-76
2021/08/24 12:15:45;;;;;;;9.85;7.93;;;18.60;99.90;;;;;;5090021;28;20024;-76
2021/08/24 12:18:11;;;;;;;9.32;8.05;;;18.70;99.90;;;;;;5089423;28;20032;-76
2021/08/24 12:20:44;;;;;;;9.43;8.15;;;18.60;99.90;;;;;;5096704;28;20035;-76
2021/08/24 12:23:14;;;;;;;11.63;8.50;;;19.00;99.90;;;;;;5094841;28;20029;-76
2021/08/24 12:25:46;;;;;;;10.70;8.32;;;19.10;99.90;;;;;;5083985;28;20032;-74
2021/08/24 12:28:17;;;;;;;10.10;7.85;;;19.30;99.90;;;;;;5098245;28;20012;-76
2021/08/24 12:30:58;;;;;;;10.27;8.85;;;19.20;99.90;;;;;;5090416;28;20030;-76
2021/08/24 12:33:35;;;;;;;9.90;7.95;;;19.30;99.90;;;;;;5091828;28;20488;-76
2021/08/24 12:36:23;;;;;;;10.43;8.38;;;19.20;99.90;;;;;;5073172;28;20024;-75
2021/08/24 12:38:51;;;;;;;9.05;7.95;;;19.10;99.90;;;;;;5089922;28;20020;-76
2021/08/24 12:41:31;;;;;;;10.98;8.25;;;18.70;99.90;;;;;;5099102;28;20604;-76
2021/08/24 12:44:17;;;;;;;11.73;8.50;;;18.60;99.90;;;;;;5077317;28;20487;-76
2021/08/24 12:46:44;;;;;;;10.70;9.38;;;18.70;99.90;;;;;;5084182;28;20024;-76
2021/08/24 12:49:16;;;;;;;11.02;9.07;;;18.80;99.90;;;;;;5085728;28;20023;-73
2021/08/24 12:51:46;;;;;;;10.73;8.18;;;18.70;99.90;;;;;;5071282;28;20566;-73
2021/08/24 12:54:15;;;;;;;10.27;8.27;;;18.60;99.90;;;;;;5071312;28;20103;-73
2021/08/24 12:56:46;;;;;;;12.00;8.98;;;18.70;99.90;;;;;;5071156;28;20020;-73
2021/08/24 12:59:32;;;;;;;11.07;9.27;;;18.70;99.90;;;;;;5071372;28;20028;-73
2021/08/24 13:02:29;;;;;;;14.68;10.65;;;18.80;99.90;;;;;;5075375;28;20419;-73
2021/08/24 13:05:13;;;;;;;12.27;9.75;;;18.70;99.90;;;;;;5092446;28;20100;-73